Time;durP1;ratioP1;P1;durP2;ratioP2;P2;SDS_P1;SDS_P2;PMS_P1;PMS_P2;Temp;Humidity;BMP_temperature;BMP_pressure;BME280_temperature;BME280_humidity;BME280_pressure;Samples;Min_cycle;Max_cycle;Signal;HPM_P1;HPM_P2
2022/05/22 00:01:34;;;;;;;8.05;2.10;;;21.70;57.60;;;;;;5030580;28;20037;-58
2022/05/22 00:03:59;;;;;;;6.18;1.58;;;21.70;57.60;;;;;;5032912;28;20044;-58
2022/05/22 00:06:25;;;;;;;6.05;1.90;;;21.70;57.40;;;;;;5038492;28;20043;-58
2022/05/22 00:08:50;;;;;;;5.97;1.80;;;21.70;57.60;;;;;;5034159;28;20441;-58
2022/05/22 00:11:16;;;;;;;3.55;1.58;;;21.70;57.50;;;;;;5037096;28;20021;-58
2022/05/22 00:13:42;;;;;;;4.63;1.52;;;21.70;57.40;;;;;;5037027;28;20026;-58
2022/05/22 00:18:51;;;;;;;6.75;1.70;;;21.60;57.50;;;;;;5032977;28;20448;-59
2022/05/22 00:21:17;;;;;;;5.07;1.58;;;21.60;57.60;;;;;;5030672;28;20029;-59
2022/05/22 00:23:43;;;;;;;5.90;2.28;;;21.60;57.50;;;;;;5033642;28;20617;-58
2022/05/22 00:26:09;;;;;;;4.75;1.55;;;21.60;57.50;;;;;;5037204;28;20115;-58
2022/05/22 00:28:35;;;;;;;6.15;1.70;;;21.60;57.60;;;;;;5034717;28;20035;-58
2022/05/22 00:31:00;;;;;;;5.28;1.80;;;21.60;57.50;;;;;;5032252;28;20103;-59
2022/05/22 00:33:29;;;;;;;4.13;1.40;;;21.60;57.50;;;;;;5037776;28;20026;-59
2022/05/22 00:35:55;;;;;;;4.32;1.52;;;21.60;57.60;;;;;;5032676;28;20037;-59
2022/05/22 00:38:21;;;;;;;7.05;1.80;;;21.60;57.60;;;;;;5038272;28;20032;-58
2022/05/22 00:40:46;;;;;;;4.07;1.65;;;21.50;57.60;;;;;;5031694;28;20033;-58
2022/05/22 00:43:33;;;;;;;6.90;2.15;;;21.60;57.60;;;;;;5033946;28;20037;-58
2022/05/22 00:45:59;;;;;;;4.97;1.85;;;21.50;57.60;;;;;;5029805;28;20049;-59
2022/05/22 00:48:25;;;;;;;3.33;1.60;;;21.50;57.60;;;;;;5036299;28;20025;-58
2022/05/22 00:50:51;;;;;;;3.83;1.70;;;21.50;57.60;;;;;;5033049;28;20106;-58
2022/05/22 00:53:17;;;;;;;3.92;1.60;;;21.50;57.60;;;;;;5034311;28;20029;-59
2022/05/22 00:55:43;;;;;;;6.57;1.85;;;21.50;57.60;;;;;;5017635;28;20375;-58
2022/05/22 00:58:14;;;;;;;4.85;1.60;;;21.50;57.70;;;;;;5031333;28;20118;-58
2022/05/22 01:00:39;;;;;;;4.22;1.70;;;21.50;57.70;;;;;;5035119;28;20017;-58
2022/05/22 01:05:51;;;;;;;5.43;1.67;;;21.40;57.60;;;;;;5030901;28;20091;-59
2022/05/22 01:08:17;;;;;;;2.63;1.40;;;21.40;57.60;;;;;;5035505;28;20061;-58
2022/05/22 01:10:44;;;;;;;5.28;1.70;;;21.40;57.70;;;;;;5039785;28;20029;-58
2022/05/22 01:13:15;;;;;;;4.53;1.60;;;21.40;57.80;;;;;;5064098;28;20111;-58
2022/05/22 01:15:41;;;;;;;5.07;1.50;;;21.40;57.80;;;;;;5033942;28;20037;-59
2022/05/22 01:18:06;;;;;;;3.33;1.50;;;21.40;57.80;;;;;;5033246;28;20033;-58
2022/05/22 01:20:32;;;;;;;5.13;1.60;;;21.40;57.80;;;;;;5030758;28;20052;-58
2022/05/22 01:22:58;;;;;;;3.03;1.50;;;21.40;57.80;;;;;;5029250;28;20028;-59
2022/05/22 01:25:23;;;;;;;4.32;1.50;;;21.40;57.90;;;;;;5030416;28;20125;-58
2022/05/22 01:27:49;;;;;;;4.18;1.73;;;21.40;57.90;;;;;;5038232;28;20099;-58
2022/05/22 01:30:17;;;;;;;4.78;1.60;;;21.40;57.90;;;;;;5019772;28;20445;-58
2022/05/22 01:32:45;;;;;;;4.57;1.73;;;21.40;57.90;;;;;;5038746;28;20025;-58
2022/05/22 01:35:15;;;;;;;3.35;1.50;;;21.40;58.00;;;;;;5038859;28;20446;-58
2022/05/22 01:37:41;;;;;;;3.83;1.60;;;21.40;58.00;;;;;;5037135;28;20696;-58
2022/05/22 01:40:09;;;;;;;3.60;1.60;;;21.40;58.00;;;;;;5034238;28;20068;-59
2022/05/22 01:42:35;;;;;;;5.20;1.60;;;21.40;58.10;;;;;;5032326;28;20026;-58
2022/05/22 01:45:00;;;;;;;4.00;1.60;;;21.30;58.00;;;;;;5032615;28;20042;-59
2022/05/22 01:47:26;;;;;;;3.30;1.60;;;21.30;58.10;;;;;;5034809;28;20124;-58
2022/05/22 01:49:52;;;;;;;4.95;1.95;;;21.30;58.10;;;;;;5032540;28;20064;-58
2022/05/22 01:52:17;;;;;;;4.43;1.70;;;21.30;58.10;;;;;;5030706;28;20029;-58
2022/05/22 01:54:43;;;;;;;4.15;1.50;;;21.30;58.10;;;;;;5032716;28;20036;-59
2022/05/22 01:57:10;;;;;;;4.05;1.58;;;21.30;58.10;;;;;;5038242;28;20514;-58
2022/05/22 01:59:36;;;;;;;2.97;1.30;;;21.30;58.10;;;;;;5036731;28;20022;-59
2022/05/22 02:02:01;;;;;;;4.78;1.60;;;21.30;58.10;;;;;;5034751;28;20108;-58
2022/05/22 02:04:27;;;;;;;5.10;1.85;;;21.30;58.10;;;;;;5041767;28;20123;-58
2022/05/22 02:09:37;;;;;;;4.32;1.42;;;21.30;58.10;;;;;;5038966;28;20221;-58
2022/05/22 02:12:03;;;;;;;3.13;1.40;;;21.20;58.00;;;;;;5048897;28;20029;-58
2022/05/22 02:14:28;;;;;;;4.47;1.70;;;21.20;58.10;;;;;;5039407;28;20029;-58
2022/05/22 02:16:54;;;;;;;3.85;1.65;;;21.20;58.10;;;;;;5034799;28;20033;-58
2022/05/22 02:19:19;;;;;;;4.47;1.60;;;21.20;58.10;;;;;;5034314;28;20024;-58
2022/05/22 02:21:46;;;;;;;4.35;1.60;;;21.20;58.20;;;;;;5037727;28;20029;-58
2022/05/22 02:24:11;;;;;;;3.88;1.52;;;21.20;58.10;;;;;;5037244;28;20033;-58
2022/05/22 02:26:37;;;;;;;4.50;1.65;;;21.20;58.20;;;;;;5046724;28;20041;-59
2022/05/22 02:29:03;;;;;;;3.28;1.40;;;21.20;58.20;;;;;;5036098;28;20017;-58
2022/05/22 02:31:29;;;;;;;2.60;1.40;;;21.20;58.20;;;;;;5039780;28;20033;-57
2022/05/22 02:33:55;;;;;;;4.50;1.70;;;21.20;58.20;;;;;;5036946;28;20029;-58
2022/05/22 02:36:20;;;;;;;4.93;1.63;;;21.20;58.20;;;;;;5031646;28;20037;-58
2022/05/22 02:38:46;;;;;;;4.45;1.52;;;21.20;58.20;;;;;;5036661;28;20028;-59
2022/05/22 02:41:15;;;;;;;3.58;1.52;;;21.20;58.20;;;;;;5039290;28;20119;-58
2022/05/22 02:43:41;;;;;;;4.07;1.45;;;21.20;58.30;;;;;;5037108;28;20454;-59
2022/05/22 02:46:10;;;;;;;3.67;1.50;;;21.10;58.30;;;;;;5035292;28;20087;-58
2022/05/22 02:48:36;;;;;;;3.22;1.33;;;21.10;58.30;;;;;;5039045;28;20117;-58
2022/05/22 02:51:01;;;;;;;3.58;1.60;;;21.10;58.30;;;;;;5034344;28;20092;-58
2022/05/22 02:53:27;;;;;;;3.83;1.50;;;21.10;58.30;;;;;;5033721;28;20033;-58
2022/05/22 02:55:53;;;;;;;3.85;1.48;;;21.10;58.30;;;;;;5031492;28;20078;-59
2022/05/22 02:58:18;;;;;;;3.20;1.40;;;21.10;58.30;;;;;;5033936;28;20533;-58
2022/05/22 03:00:44;;;;;;;2.97;1.35;;;21.10;58.30;;;;;;5040616;28;20461;-58
2022/05/22 03:03:10;;;;;;;5.18;1.55;;;21.10;58.30;;;;;;5036853;28;20040;-59
2022/05/22 03:08:20;;;;;;;4.13;1.35;;;21.10;58.30;;;;;;5037977;28;20037;-59
2022/05/22 03:10:46;;;;;;;2.97;1.27;;;21.10;58.30;;;;;;5034809;28;20041;-59
2022/05/22 03:13:14;;;;;;;2.20;1.33;;;21.00;58.30;;;;;;5033507;28;20018;-59
2022/05/22 03:15:40;;;;;;;2.95;1.33;;;21.00;58.30;;;;;;5038154;28;20071;-58
2022/05/22 03:18:06;;;;;;;3.50;1.48;;;21.00;58.30;;;;;;5032831;28;20041;-59
2022/05/22 03:20:33;;;;;;;2.90;1.40;;;21.00;58.30;;;;;;5037258;28;20034;-58
2022/05/22 03:22:58;;;;;;;4.10;1.60;;;21.00;58.30;;;;;;5031012;28;20033;-59
2022/05/22 03:25:25;;;;;;;4.60;1.33;;;21.00;58.40;;;;;;5032944;28;20045;-58
2022/05/22 03:27:50;;;;;;;4.50;1.45;;;21.00;58.40;;;;;;5036553;28;20036;-59
2022/05/22 03:30:16;;;;;;;4.85;1.42;;;21.00;58.40;;;;;;5034567;28;20029;-58
2022/05/22 03:32:42;;;;;;;2.58;1.30;;;21.00;58.40;;;;;;5032839;28;20026;-59
2022/05/22 03:35:07;;;;;;;3.90;1.27;;;21.00;58.50;;;;;;5031783;28;20083;-58
2022/05/22 03:37:33;;;;;;;2.97;1.33;;;21.00;58.50;;;;;;5039711;28;20029;-58
2022/05/22 03:39:59;;;;;;;2.47;1.38;;;21.00;58.50;;;;;;5029563;28;20028;-58
2022/05/22 03:42:24;;;;;;;2.80;1.33;;;21.00;58.50;;;;;;5037100;28;20037;-59
2022/05/22 03:44:51;;;;;;;2.95;1.38;;;21.00;58.40;;;;;;5038942;28;20043;-58
2022/05/22 03:47:16;;;;;;;2.72;1.20;;;21.00;58.50;;;;;;5032223;28;20060;-59
2022/05/22 03:49:42;;;;;;;3.38;1.30;;;21.00;58.50;;;;;;5037398;28;20500;-59
2022/05/22 03:52:08;;;;;;;3.22;1.38;;;20.90;58.50;;;;;;5033761;28;20505;-58
2022/05/22 03:54:33;;;;;;;3.08;1.30;;;20.90;58.40;;;;;;5039944;28;20021;-58
2022/05/22 03:56:59;;;;;;;4.15;1.33;;;20.90;58.40;;;;;;5032953;28;20521;-59
2022/05/22 03:59:25;;;;;;;3.00;1.20;;;20.90;58.50;;;;;;5035707;28;20057;-58
2022/05/22 04:01:51;;;;;;;4.72;1.27;;;20.90;58.50;;;;;;5034932;28;20018;-58
2022/05/22 04:04:17;;;;;;;4.25;1.35;;;20.90;58.50;;;;;;5035355;28;20037;-58
2022/05/22 04:06:42;;;;;;;2.53;1.40;;;20.90;58.50;;;;;;5033485;28;22886;-59
2022/05/22 04:09:08;;;;;;;4.05;1.55;;;20.90;58.50;;;;;;5030793;28;20035;-59
2022/05/22 04:11:34;;;;;;;3.53;1.25;;;20.90;58.60;;;;;;5033960;28;20029;-58
2022/05/22 04:14:02;;;;;;;3.28;1.30;;;20.90;58.50;;;;;;5037409;28;20048;-59
2022/05/22 04:16:27;;;;;;;2.00;1.30;;;20.90;58.50;;;;;;5035781;28;20029;-58
2022/05/22 04:18:53;;;;;;;2.70;1.30;;;20.90;58.60;;;;;;5029608;28;20118;-58
2022/05/22 04:21:18;;;;;;;2.88;1.15;;;20.90;58.50;;;;;;5030934;28;20021;-58
2022/05/22 04:26:31;;;;;;;3.63;1.45;;;20.80;58.50;;;;;;5031638;28;20091;-59
2022/05/22 04:28:57;;;;;;;2.67;1.30;;;20.90;58.60;;;;;;5033548;28;20135;-58
2022/05/22 04:31:23;;;;;;;2.65;1.20;;;20.80;58.50;;;;;;5036283;28;20093;-59
2022/05/22 04:33:48;;;;;;;3.17;1.33;;;20.80;58.60;;;;;;5037571;28;20029;-59
2022/05/22 04:36:14;;;;;;;2.55;1.20;;;20.80;58.60;;;;;;5035325;28;20036;-59
2022/05/22 04:38:39;;;;;;;2.95;1.15;;;20.80;58.60;;;;;;5031909;28;20029;-59
2022/05/22 04:41:05;;;;;;;2.30;1.23;;;20.80;58.60;;;;;;5038584;28;20497;-59
2022/05/22 04:43:31;;;;;;;3.20;1.05;;;20.80;58.60;;;;;;5031598;28;20075;-58
2022/05/22 04:45:57;;;;;;;3.33;1.30;;;20.80;58.60;;;;;;5038410;28;20329;-58
2022/05/22 04:48:24;;;;;;;3.80;1.30;;;20.80;58.60;;;;;;5031582;28;20087;-58
2022/05/22 04:50:50;;;;;;;4.07;1.27;;;20.80;58.60;;;;;;5038540;28;20028;-58
2022/05/22 04:53:17;;;;;;;3.22;1.23;;;20.80;58.70;;;;;;5034207;28;20549;-59
2022/05/22 04:55:43;;;;;;;2.58;1.38;;;20.80;58.60;;;;;;5037356;28;20041;-58
2022/05/22 04:58:09;;;;;;;3.60;1.30;;;20.80;58.60;;;;;;5028860;28;20474;-59
2022/05/22 05:00:34;;;;;;;3.03;1.20;;;20.70;58.50;;;;;;5034708;28;20025;-59
2022/05/22 05:03:00;;;;;;;2.85;1.23;;;20.80;58.60;;;;;;5034328;28;20528;-59
2022/05/22 05:05:27;;;;;;;2.20;1.13;;;20.80;58.30;;;;;;5035743;28;20037;-58
2022/05/22 05:07:57;;;;;;;2.25;1.27;;;20.70;58.60;;;;;;5033931;28;20032;-59
2022/05/22 05:10:22;;;;;;;2.85;1.08;;;20.70;58.40;;;;;;5033554;28;20033;-59
2022/05/22 05:12:48;;;;;;;1.60;0.88;;;20.70;58.50;;;;;;5032790;28;20021;-58
2022/05/22 05:15:16;;;;;;;2.88;1.10;;;20.70;58.40;;;;;;5037340;28;20026;-59
2022/05/22 05:17:42;;;;;;;2.88;1.40;;;20.70;58.50;;;;;;5032285;28;20022;-58
2022/05/22 05:20:09;;;;;;;2.33;1.15;;;20.70;58.60;;;;;;5037997;28;20039;-58
2022/05/22 05:22:35;;;;;;;4.20;1.25;;;20.70;58.50;;;;;;5032218;28;20036;-58
2022/05/22 05:25:01;;;;;;;2.88;1.10;;;20.70;58.50;;;;;;5039791;28;20040;-58
2022/05/22 05:27:27;;;;;;;3.95;1.38;;;20.70;58.60;;;;;;5034569;28;20585;-59
2022/05/22 05:29:52;;;;;;;3.85;1.17;;;20.70;59.40;;;;;;5030287;28;20021;-58
2022/05/22 05:32:21;;;;;;;1.88;1.00;;;20.60;58.50;;;;;;5037050;28;20036;-58
2022/05/22 05:34:47;;;;;;;3.00;1.40;;;20.70;58.50;;;;;;5031842;28;20025;-59
2022/05/22 05:37:12;;;;;;;3.08;1.20;;;20.60;58.60;;;;;;5033229;28;20090;-59
2022/05/22 05:39:38;;;;;;;5.60;1.20;;;20.70;58.30;;;;;;5033817;28;20401;-59
2022/05/22 05:42:04;;;;;;;3.05;1.10;;;20.70;58.40;;;;;;5035442;28;20029;-59
2022/05/22 05:44:32;;;;;;;4.10;1.10;;;20.70;58.30;;;;;;5034615;28;20311;-59
2022/05/22 05:46:57;;;;;;;4.28;1.30;;;20.60;58.30;;;;;;5040115;28;20052;-59
2022/05/22 05:49:23;;;;;;;3.70;1.20;;;20.70;58.60;;;;;;5036167;28;20025;-58
2022/05/22 05:51:49;;;;;;;3.28;1.20;;;20.70;58.70;;;;;;5033877;28;20041;-59
2022/05/22 05:54:14;;;;;;;2.70;1.20;;;20.70;58.70;;;;;;5033530;28;20022;-59
2022/05/22 05:56:40;;;;;;;3.03;1.02;;;20.60;58.80;;;;;;5038327;28;20052;-59
2022/05/22 05:59:06;;;;;;;4.88;1.40;;;20.60;58.80;;;;;;5066827;28;20486;-59
2022/05/22 06:01:33;;;;;;;3.35;1.23;;;20.70;59.00;;;;;;5035989;28;20069;-59
2022/05/22 06:03:59;;;;;;;5.40;1.20;;;20.60;59.20;;;;;;5035307;28;20025;-59
2022/05/22 06:06:25;;;;;;;2.10;0.98;;;20.60;59.00;;;;;;5035285;28;20040;-59
2022/05/22 06:08:50;;;;;;;4.35;1.20;;;20.70;59.30;;;;;;5033165;28;20035;-59
2022/05/22 06:11:16;;;;;;;4.72;1.30;;;20.70;59.30;;;;;;5039176;28;20017;-59
2022/05/22 06:13:41;;;;;;;4.93;1.25;;;20.70;59.40;;;;;;5035690;28;20025;-59
2022/05/22 06:16:07;;;;;;;4.80;1.38;;;20.70;59.50;;;;;;5037916;28;20056;-59
2022/05/22 06:18:33;;;;;;;5.72;1.15;;;20.70;59.60;;;;;;5032324;28;20025;-59
2022/05/22 06:20:59;;;;;;;2.90;1.15;;;20.70;59.70;;;;;;5036604;28;20040;-59
2022/05/22 06:23:25;;;;;;;6.65;1.20;;;20.70;59.50;;;;;;5035658;28;20517;-59
2022/05/22 06:25:52;;;;;;;4.70;1.30;;;20.70;59.70;;;;;;5040772;28;20619;-59
2022/05/22 06:28:18;;;;;;;5.72;1.45;;;20.70;59.70;;;;;;5038288;28;20068;-59
2022/05/22 06:30:43;;;;;;;6.00;1.38;;;20.70;60.00;;;;;;5039740;28;20053;-59
2022/05/22 06:33:13;;;;;;;4.28;1.10;;;20.70;59.90;;;;;;5033861;28;20111;-59
2022/05/22 06:35:42;;;;;;;7.00;1.80;;;20.70;60.00;;;;;;5035143;28;20122;-59
2022/05/22 06:38:08;;;;;;;6.13;1.50;;;20.70;61.00;;;;;;5037181;28;20036;-59
2022/05/22 06:40:36;;;;;;;6.70;1.58;;;20.70;60.80;;;;;;5039764;28;20037;-59
2022/05/22 06:43:02;;;;;;;7.28;1.60;;;20.70;60.60;;;;;;5033156;28;20057;-59
2022/05/22 06:45:28;;;;;;;4.78;1.50;;;20.70;60.40;;;;;;5036761;28;20065;-59
2022/05/22 06:47:54;;;;;;;5.43;1.38;;;20.70;60.60;;;;;;5033057;28;20207;-59
2022/05/22 06:50:22;;;;;;;10.95;1.73;;;20.80;60.50;;;;;;5057210;28;20033;-58
2022/05/22 06:52:48;;;;;;;6.53;1.40;;;20.70;60.70;;;;;;5037682;28;20037;-59
2022/05/22 06:55:15;;;;;;;6.10;1.60;;;20.80;60.60;;;;;;5033194;28;20103;-59
2022/05/22 06:57:42;;;;;;;7.03;1.52;;;20.70;60.60;;;;;;5040471;28;20049;-59
2022/05/22 07:00:13;;;;;;;10.25;1.40;;;20.70;60.50;;;;;;5037788;28;20037;-59
2022/05/22 07:02:39;;;;;;;7.30;1.70;;;20.70;60.30;;;;;;5035977;28;20026;-59
2022/05/22 07:05:05;;;;;;;16.13;2.10;;;20.70;60.70;;;;;;5042591;28;20029;-59
2022/05/22 07:07:31;;;;;;;8.27;1.88;;;20.70;60.60;;;;;;5035362;28;20491;-58
2022/05/22 07:09:56;;;;;;;8.02;2.10;;;20.70;61.10;;;;;;5036256;28;20028;-59
2022/05/22 07:12:22;;;;;;;11.68;1.65;;;20.70;60.80;;;;;;5036572;28;20507;-59
2022/05/22 07:14:52;;;;;;;7.75;1.85;;;20.70;61.00;;;;;;5034341;28;20125;-59
2022/05/22 07:17:21;;;;;;;10.98;1.90;;;20.70;61.30;;;;;;5037225;28;20127;-59
2022/05/22 07:19:47;;;;;;;12.80;1.80;;;20.80;61.50;;;;;;5029797;28;20028;-59
2022/05/22 07:22:13;;;;;;;10.23;1.75;;;20.80;61.30;;;;;;5033741;28;20112;-59
2022/05/22 07:24:38;;;;;;;9.65;1.77;;;20.80;61.40;;;;;;5041522;28;20052;-59
2022/05/22 07:27:04;;;;;;;8.45;1.80;;;20.80;61.50;;;;;;5044296;28;20106;-58
2022/05/22 07:29:30;;;;;;;10.65;2.00;;;20.80;62.30;;;;;;5034902;28;20359;-59
2022/05/22 07:31:57;;;;;;;10.63;2.05;;;20.80;61.80;;;;;;5031674;28;20033;-59
2022/05/22 07:34:24;;;;;;;11.15;2.40;;;20.80;61.70;;;;;;5029488;28;20025;-58
2022/05/22 07:36:56;;;;;;;13.88;2.13;;;20.70;61.40;;;;;;5033574;28;20053;-58
2022/05/22 07:39:21;;;;;;;10.90;2.13;;;20.70;61.60;;;;;;5036405;28;20048;-58
2022/05/22 07:41:47;;;;;;;12.63;2.45;;;20.70;62.60;;;;;;5034515;28;20494;-59
2022/05/22 07:44:13;;;;;;;10.15;2.15;;;20.70;61.50;;;;;;5040438;28;20033;-59
2022/05/22 07:46:38;;;;;;;10.52;2.15;;;20.70;61.60;;;;;;5043453;28;20048;-59
2022/05/22 07:49:04;;;;;;;11.15;1.90;;;20.70;61.40;;;;;;5034429;28;20028;-59
2022/05/22 07:51:30;;;;;;;7.65;2.00;;;20.70;61.30;;;;;;5039833;28;20033;-58
2022/05/22 07:53:55;;;;;;;12.13;2.00;;;20.70;61.20;;;;;;5035777;28;20406;-59
2022/05/22 07:56:22;;;;;;;11.48;2.10;;;20.70;61.30;;;;;;5036923;28;20021;-58
2022/05/22 07:58:51;;;;;;;9.63;2.33;;;20.70;61.30;;;;;;5041758;28;20032;-59
2022/05/22 08:01:18;;;;;;;11.25;2.00;;;20.70;61.30;;;;;;5036053;28;20034;-58
2022/05/22 08:03:44;;;;;;;8.55;2.13;;;20.70;61.30;;;;;;5040580;28;20036;-59
2022/05/22 08:06:10;;;;;;;10.85;2.22;;;20.70;61.50;;;;;;5036921;28;20068;-59
2022/05/22 08:08:37;;;;;;;8.73;2.15;;;20.70;61.40;;;;;;5035623;28;20021;-59
2022/05/22 08:11:02;;;;;;;8.15;1.90;;;20.70;61.20;;;;;;5046321;28;20039;-59
2022/05/22 08:13:28;;;;;;;8.18;2.10;;;20.60;61.20;;;;;;5042404;28;20029;-58
2022/05/22 08:15:54;;;;;;;12.23;2.17;;;20.60;61.10;;;;;;5031511;28;20033;-59
2022/05/22 08:18:19;;;;;;;8.45;2.10;;;20.70;61.40;;;;;;5045667;28;20029;-59
2022/05/22 08:20:47;;;;;;;10.30;2.20;;;20.70;61.20;;;;;;5037690;28;20026;-59
2022/05/22 08:23:17;;;;;;;13.25;2.35;;;20.70;61.10;;;;;;5030604;28;20029;-59
2022/05/22 08:25:44;;;;;;;12.13;2.13;;;20.70;61.10;;;;;;5033945;28;20033;-59
2022/05/22 08:28:09;;;;;;;14.68;2.33;;;20.70;61.10;;;;;;5035821;28;20332;-59
2022/05/22 08:30:35;;;;;;;15.02;2.30;;;20.80;61.50;;;;;;5037576;28;20490;-59
2022/05/22 08:33:01;;;;;;;13.80;2.30;;;20.80;61.60;;;;;;5034700;28;20031;-60
2022/05/22 08:35:36;;;;;;;9.70;2.45;;;20.80;61.50;;;;;;5038353;28;20034;-59
2022/05/22 08:38:02;;;;;;;17.52;3.00;;;20.80;61.40;;;;;;5034648;28;20033;-59
2022/05/22 08:40:46;;;;;;;11.05;2.15;;;20.80;61.40;;;;;;5035295;28;20482;-59
2022/05/22 08:43:24;;;;;;;10.70;2.00;;;20.90;61.40;;;;;;5043915;28;20033;-59
2022/05/22 08:45:57;;;;;;;10.13;1.88;;;20.90;61.40;;;;;;5040132;28;20049;-59
2022/05/22 08:48:28;;;;;;;10.07;2.05;;;20.90;61.60;;;;;;5044538;28;20036;-59
2022/05/22 08:50:56;;;;;;;10.80;2.20;;;20.90;61.50;;;;;;5035422;28;20071;-59
2022/05/22 08:53:38;;;;;;;11.50;2.30;;;21.00;61.70;;;;;;5026265;28;20022;-58
2022/05/22 08:59:00;;;;;;;13.18;2.30;;;21.00;61.70;;;;;;5067842;28;20073;-58
2022/05/22 09:01:39;;;;;;;8.73;2.38;;;21.00;61.70;;;;;;5038766;28;20099;-58
2022/05/22 09:04:33;;;;;;;9.35;2.30;;;21.10;61.70;;;;;;5035526;28;20032;-58
2022/05/22 09:07:02;;;;;;;9.93;2.10;;;21.10;61.60;;;;;;5030197;28;20048;-58
2022/05/22 09:09:28;;;;;;;9.07;2.78;;;21.20;61.60;;;;;;5047326;28;20025;-58
2022/05/22 09:12:19;;;;;;;11.77;2.28;;;21.20;61.40;;;;;;5037270;28;20499;-58
2022/05/22 09:15:15;;;;;;;9.38;2.10;;;21.20;61.30;;;;;;5042220;28;20456;-58
2022/05/22 09:17:53;;;;;;;10.45;2.20;;;21.20;61.20;;;;;;5034176;28;20124;-58
2022/05/22 09:20:21;;;;;;;9.55;1.83;;;21.20;61.10;;;;;;5068820;28;20564;-57
2022/05/22 09:22:59;;;;;;;12.07;2.25;;;21.20;61.00;;;;;;5030459;28;20017;-58
2022/05/22 09:25:36;;;;;;;9.75;2.25;;;21.30;60.90;;;;;;5031002;28;20052;-58
2022/05/22 09:28:23;;;;;;;10.23;2.20;;;21.30;60.90;;;;;;5037096;28;20040;-58
2022/05/22 09:31:11;;;;;;;9.13;2.17;;;21.30;61.00;;;;;;5032685;28;20026;-57
2022/05/22 09:33:58;;;;;;;9.05;2.17;;;21.30;60.80;;;;;;5030515;28;20431;-58
2022/05/22 09:36:42;;;;;;;11.73;2.70;;;21.30;60.90;;;;;;5042992;28;20025;-57
2022/05/22 09:39:15;;;;;;;8.07;1.90;;;21.30;60.80;;;;;;5035915;28;20091;-58
2022/05/22 09:42:07;;;;;;;7.13;2.20;;;21.30;60.80;;;;;;5029912;28;20017;-58
2022/05/22 09:44:48;;;;;;;13.18;2.42;;;21.40;60.90;;;;;;5038137;28;20029;-58
2022/05/22 09:47:22;;;;;;;8.77;2.30;;;21.40;60.90;;;;;;5033357;28;20068;-58
2022/05/22 09:50:05;;;;;;;7.63;2.20;;;21.40;60.90;;;;;;5038008;28;20029;-58
2022/05/22 09:53:02;;;;;;;9.38;2.17;;;21.40;60.90;;;;;;5035585;28;20032;-58
2022/05/22 09:55:34;;;;;;;10.13;2.45;;;21.40;60.70;;;;;;5038042;28;20213;-57
2022/05/22 09:58:02;;;;;;;9.65;2.13;;;21.40;60.60;;;;;;5061751;28;20053;-58
2022/05/22 10:00:51;;;;;;;11.00;2.60;;;21.40;60.70;;;;;;5044073;28;20033;-58
2022/05/22 10:03:36;;;;;;;13.23;2.28;;;21.50;60.60;;;;;;5026873;28;20038;-57
2022/05/22 10:06:12;;;;;;;10.80;2.35;;;21.50;60.50;;;;;;5037831;28;20425;-58
2022/05/22 10:08:50;;;;;;;12.27;2.47;;;21.50;60.40;;;;;;5039339;28;20112;-58
2022/05/22 10:11:22;;;;;;;9.38;2.08;;;21.50;60.70;;;;;;5037148;28;20036;-58
2022/05/22 10:14:16;;;;;;;11.73;2.40;;;21.50;60.50;;;;;;5018102;28;20051;-58
2022/05/22 10:17:01;;;;;;;14.07;2.35;;;21.50;60.70;;;;;;5031880;28;20025;-58
2022/05/22 10:20:02;;;;;;;11.35;2.28;;;21.50;60.60;;;;;;5043595;28;20028;-58
2022/05/22 10:22:51;;;;;;;9.93;2.38;;;21.50;60.70;;;;;;5031465;28;20102;-58
2022/05/22 10:25:52;;;;;;;15.05;2.78;;;21.60;60.90;;;;;;5040598;28;20562;-58
2022/05/22 10:28:54;;;;;;;9.23;2.17;;;21.50;60.60;;;;;;5039925;28;20700;-58
2022/05/22 10:31:23;;;;;;;11.13;2.50;;;21.60;60.80;;;;;;5035162;28;20261;-58
2022/05/22 10:34:00;;;;;;;10.18;2.40;;;21.60;60.80;;;;;;5046162;28;20453;-58
2022/05/22 10:36:39;;;;;;;8.60;2.25;;;21.60;60.90;;;;;;5039995;28;20021;-58
2022/05/22 10:39:07;;;;;;;9.02;2.15;;;21.60;60.80;;;;;;5060501;28;20095;-57
2022/05/22 10:44:17;;;;;;;13.57;2.50;;;21.60;60.60;;;;;;5037167;28;20036;-58
2022/05/22 10:46:51;;;;;;;13.15;2.38;;;21.60;60.70;;;;;;5034320;28;20300;-58
2022/05/22 10:49:18;;;;;;;11.88;2.60;;;21.60;60.80;;;;;;5034939;28;20037;-58
2022/05/22 10:51:55;;;;;;;7.88;2.22;;;21.70;60.80;;;;;;5044424;28;20023;-58
2022/05/22 10:54:27;;;;;;;7.68;2.00;;;21.60;60.80;;;;;;5034693;28;20033;-58
2022/05/22 10:56:53;;;;;;;11.02;2.03;;;21.60;60.70;;;;;;5039108;28;20120;-58
2022/05/22 10:59:20;;;;;;;10.10;2.35;;;21.60;60.70;;;;;;5039249;28;20120;-58
2022/05/22 11:01:57;;;;;;;9.55;2.28;;;21.70;60.70;;;;;;5038951;28;20021;-58
2022/05/22 11:04:37;;;;;;;9.52;2.20;;;21.60;60.70;;;;;;5033634;28;20029;-58
2022/05/22 11:07:04;;;;;;;8.43;2.47;;;21.70;60.70;;;;;;5033137;28;20057;-57
2022/05/22 11:09:32;;;;;;;7.47;2.20;;;21.70;60.60;;;;;;5045571;28;20068;-58
2022/05/22 11:12:12;;;;;;;8.20;2.60;;;21.70;60.70;;;;;;5035973;28;20021;-58
2022/05/22 11:14:39;;;;;;;10.88;2.63;;;21.70;60.70;;;;;;5034520;28;20036;-57
2022/05/22 11:17:14;;;;;;;9.10;2.45;;;21.70;60.70;;;;;;5034146;28;20025;-57
2022/05/22 11:19:41;;;;;;;8.07;2.30;;;21.70;60.70;;;;;;5066319;28;20035;-58
2022/05/22 11:22:27;;;;;;;7.45;2.20;;;21.70;60.70;;;;;;5043921;28;20032;-57
2022/05/22 11:24:53;;;;;;;8.55;2.60;;;21.70;60.70;;;;;;5034060;28;20055;-57
2022/05/22 11:27:24;;;;;;;9.13;2.38;;;21.70;60.70;;;;;;5038865;28;20042;-58
2022/05/22 11:30:02;;;;;;;9.20;2.50;;;21.70;60.70;;;;;;5036150;28;20083;-58
2022/05/22 11:33:29;;;;;;;7.40;2.30;;;21.70;60.80;;;;;;5038466;28;20140;-58
2022/05/22 11:36:34;;;;;;;8.88;2.38;;;21.70;60.50;;;;;;4998142;28;20053;-58
2022/05/22 11:39:22;;;;;;;10.00;2.40;;;21.70;60.60;;;;;;4944414;28;20369;-58
2022/05/22 11:42:13;;;;;;;5.95;2.05;;;21.70;60.70;;;;;;4944039;29;20046;-58
2022/05/22 11:45:01;;;;;;;9.10;2.60;;;21.80;60.60;;;;;;4930399;29;20075;-58
2022/05/22 11:47:35;;;;;;;7.80;2.42;;;21.80;60.60;;;;;;4945544;29;20047;-58
2022/05/22 11:50:36;;;;;;;7.80;2.35;;;21.80;60.60;;;;;;4945551;29;20086;-58
2022/05/22 11:53:26;;;;;;;6.90;2.35;;;21.80;60.70;;;;;;4895654;29;20090;-58
2022/05/22 11:55:58;;;;;;;10.02;2.15;;;21.80;60.60;;;;;;4896418;29;20044;-58
2022/05/22 11:58:54;;;;;;;7.85;2.20;;;21.80;60.60;;;;;;4893970;29;20367;-58
2022/05/22 12:01:21;;;;;;;9.93;2.08;;;21.80;60.60;;;;;;4893586;29;20036;-58
2022/05/22 12:04:11;;;;;;;9.15;2.30;;;21.80;60.70;;;;;;4890466;29;20584;-58
2022/05/22 12:06:54;;;;;;;6.90;2.35;;;21.80;60.50;;;;;;4891183;29;20047;-58
2022/05/22 12:09:52;;;;;;;7.68;2.13;;;21.80;60.50;;;;;;4915508;28;20096;-58
2022/05/22 12:12:57;;;;;;;9.45;2.30;;;21.90;60.60;;;;;;4939356;28;20045;-57
2022/05/22 12:15:37;;;;;;;9.45;2.10;;;21.90;60.40;;;;;;4923889;29;20039;-58
2022/05/22 12:18:29;;;;;;;7.22;2.03;;;21.90;60.30;;;;;;4943701;28;20070;-58
2022/05/22 12:21:00;;;;;;;15.55;2.60;;;21.90;60.20;;;;;;4894156;29;20518;-57
2022/05/22 12:23:28;;;;;;;8.40;1.90;;;22.00;60.20;;;;;;4894749;29;20073;-57
2022/05/22 12:25:59;;;;;;;8.65;2.45;;;22.00;60.30;;;;;;4896483;29;20145;-58
2022/05/22 12:28:48;;;;;;;9.52;2.10;;;22.00;60.20;;;;;;4900158;29;20040;-58
2022/05/22 12:31:44;;;;;;;7.32;2.08;;;22.00;60.20;;;;;;4941245;28;20039;-57
2022/05/22 12:34:22;;;;;;;8.93;2.42;;;22.00;60.10;;;;;;4946720;28;20050;-57
2022/05/22 12:36:51;;;;;;;6.25;1.88;;;22.10;61.20;;;;;;4946301;28;20019;-58
2022/05/22 12:39:17;;;;;;;8.85;2.20;;;22.10;60.20;;;;;;4947197;28;20122;-58
2022/05/22 12:41:46;;;;;;;6.93;2.10;;;22.10;60.10;;;;;;4947149;28;20047;-58
2022/05/22 12:44:12;;;;;;;8.73;2.40;;;22.10;60.10;;;;;;4943629;28;20126;-57
2022/05/22 12:46:39;;;;;;;7.28;2.22;;;22.10;60.10;;;;;;4944987;28;20078;-58
2022/05/22 12:49:24;;;;;;;8.70;2.05;;;22.10;60.10;;;;;;4961392;28;20619;-58
2022/05/22 12:52:02;;;;;;;7.40;2.13;;;22.10;60.10;;;;;;4955813;28;20062;-58
2022/05/22 12:54:30;;;;;;;6.75;2.15;;;22.20;60.10;;;;;;4952363;28;20023;-58
2022/05/22 12:57:12;;;;;;;9.93;2.30;;;22.20;60.20;;;;;;4961996;28;20113;-58
2022/05/22 12:59:38;;;;;;;10.55;2.53;;;22.20;60.20;;;;;;5036526;28;20048;-58
2022/05/22 13:02:04;;;;;;;10.07;2.45;;;22.20;60.40;;;;;;5029184;28;20442;-58
2022/05/22 13:04:51;;;;;;;9.45;2.30;;;22.10;60.30;;;;;;5038759;28;20531;-58
2022/05/22 13:07:33;;;;;;;12.32;2.50;;;22.10;60.40;;;;;;5035579;28;20065;-58
2022/05/22 13:09:59;;;;;;;9.50;2.20;;;22.10;60.40;;;;;;5040913;28;21908;-58
2022/05/22 13:12:27;;;;;;;11.68;2.60;;;22.10;60.50;;;;;;5043606;28;20035;-58
2022/05/22 13:14:59;;;;;;;7.97;2.42;;;22.10;60.40;;;;;;5033799;28;20290;-58
2022/05/22 13:17:50;;;;;;;7.97;2.10;;;22.10;60.50;;;;;;5041147;28;20028;-58
2022/05/22 13:20:42;;;;;;;7.70;2.13;;;22.10;60.50;;;;;;5032121;28;20036;-58
2022/05/22 13:23:08;;;;;;;8.65;2.13;;;22.00;60.40;;;;;;5034579;28;20459;-58